sensor_id;sensor_type;location;lat;lon;timestamp;temperature;humidity
802;DHT22;383;48.766;9.270;2022-12-07T00:01:19;6.40;93.00
802;DHT22;383;48.766;9.270;2022-12-07T00:03:48;6.30;92.90
802;DHT22;383;48.766;9.270;2022-12-07T00:06:16;6.40;92.70
802;DHT22;383;48.766;9.270;2022-12-07T00:08:44;6.40;92.40
802;DHT22;383;48.766;9.270;2022-12-07T00:11:14;6.30;92.70
802;DHT22;383;48.766;9.270;2022-12-07T00:13:41;6.30;92.90
802;DHT22;383;48.766;9.270;2022-12-07T00:16:10;6.30;92.80
802;DHT22;383;48.766;9.270;2022-12-07T00:18:38;6.30;93.00
802;DHT22;383;48.766;9.270;2022-12-07T00:21:07;6.30;93.00
802;DHT22;383;48.766;9.270;2022-12-07T00:23:35;6.30;93.00
802;DHT22;383;48.766;9.270;2022-12-07T00:26:06;6.30;93.10
802;DHT22;383;48.766;9.270;2022-12-07T00:28:34;6.30;92.40
802;DHT22;383;48.766;9.270;2022-12-07T00:31:03;6.30;92.40
802;DHT22;383;48.766;9.270;2022-12-07T00:33:31;6.40;92.20
802;DHT22;383;48.766;9.270;2022-12-07T00:35:58;6.40;92.10
802;DHT22;383;48.766;9.270;2022-12-07T00:38:28;6.30;92.30
802;DHT22;383;48.766;9.270;2022-12-07T00:40:59;6.30;92.20
802;DHT22;383;48.766;9.270;2022-12-07T00:43:26;6.30;92.40
802;DHT22;383;48.766;9.270;2022-12-07T00:45:55;6.30;92.10
802;DHT22;383;48.766;9.270;2022-12-07T00:48:22;6.30;92.50
802;DHT22;383;48.766;9.270;2022-12-07T00:50:49;6.30;92.30
802;DHT22;383;48.766;9.270;2022-12-07T00:53:16;6.30;92.20
802;DHT22;383;48.766;9.270;2022-12-07T00:55:44;6.20;92.00
802;DHT22;383;48.766;9.270;2022-12-07T00:58:11;6.20;91.50
802;DHT22;383;48.766;9.270;2022-12-07T01:00:39;6.20;91.90
802;DHT22;383;48.766;9.270;2022-12-07T01:03:10;6.20;91.90
802;DHT22;383;48.766;9.270;2022-12-07T01:05:37;6.10;92.20
802;DHT22;383;48.766;9.270;2022-12-07T01:08:04;6.00;92.60
802;DHT22;383;48.766;9.270;2022-12-07T01:10:32;6.00;92.50
802;DHT22;383;48.766;9.270;2022-12-07T01:12:59;6.10;92.50
802;DHT22;383;48.766;9.270;2022-12-07T01:15:26;6.00;92.50
802;DHT22;383;48.766;9.270;2022-12-07T01:17:53;6.00;92.70
802;DHT22;383;48.766;9.270;2022-12-07T01:20:22;6.00;92.70
802;DHT22;383;48.766;9.270;2022-12-07T01:22:48;5.90;92.90
802;DHT22;383;48.766;9.270;2022-12-07T01:25:15;5.90;92.90
802;DHT22;383;48.766;9.270;2022-12-07T01:27:42;5.90;92.60
802;DHT22;383;48.766;9.270;2022-12-07T01:30:10;5.90;93.00
802;DHT22;383;48.766;9.270;2022-12-07T01:32:37;5.90;92.80
802;DHT22;383;48.766;9.270;2022-12-07T01:35:05;5.80;92.80
802;DHT22;383;48.766;9.270;2022-12-07T01:37:35;5.90;92.90
802;DHT22;383;48.766;9.270;2022-12-07T01:40:03;5.80;92.70
802;DHT22;383;48.766;9.270;2022-12-07T01:42:31;5.80;93.00
802;DHT22;383;48.766;9.270;2022-12-07T01:48:01;5.80;92.30
802;DHT22;383;48.766;9.270;2022-12-07T01:50:28;5.80;92.60
802;DHT22;383;48.766;9.270;2022-12-07T01:53:00;5.80;92.30
802;DHT22;383;48.766;9.270;2022-12-07T01:55:28;5.80;92.50
802;DHT22;383;48.766;9.270;2022-12-07T01:57:55;5.80;92.50
802;DHT22;383;48.766;9.270;2022-12-07T02:00:22;5.80;92.40
802;DHT22;383;48.766;9.270;2022-12-07T02:02:53;5.80;92.20
802;DHT22;383;48.766;9.270;2022-12-07T02:05:23;5.70;92.50
802;DHT22;383;48.766;9.270;2022-12-07T02:07:53;5.70;92.70
802;DHT22;383;48.766;9.270;2022-12-07T02:10:25;5.70;92.50
802;DHT22;383;48.766;9.270;2022-12-07T02:12:54;5.70;92.50
802;DHT22;383;48.766;9.270;2022-12-07T02:15:27;5.70;92.50
802;DHT22;383;48.766;9.270;2022-12-07T02:18:01;5.70;92.80
802;DHT22;383;48.766;9.270;2022-12-07T02:20:33;5.70;92.70
802;DHT22;383;48.766;9.270;2022-12-07T02:26:27;5.80;92.10
802;DHT22;383;48.766;9.270;2022-12-07T02:29:11;5.70;92.40
802;DHT22;383;48.766;9.270;2022-12-07T02:31:45;5.70;92.70
802;DHT22;383;48.766;9.270;2022-12-07T02:34:18;5.60;93.00
802;DHT22;383;48.766;9.270;2022-12-07T02:36:51;5.60;93.10
802;DHT22;383;48.766;9.270;2022-12-07T02:39:22;5.60;93.20
802;DHT22;383;48.766;9.270;2022-12-07T02:41:54;5.60;93.10
802;DHT22;383;48.766;9.270;2022-12-07T02:44:26;5.70;93.00
802;DHT22;383;48.766;9.270;2022-12-07T02:46:56;5.70;93.00
802;DHT22;383;48.766;9.270;2022-12-07T02:49:24;5.70;93.00
802;DHT22;383;48.766;9.270;2022-12-07T02:51:52;5.70;92.80
802;DHT22;383;48.766;9.270;2022-12-07T02:54:20;5.70;92.70
802;DHT22;383;48.766;9.270;2022-12-07T02:56:50;5.70;92.90
802;DHT22;383;48.766;9.270;2022-12-07T02:59:30;5.70;93.00
802;DHT22;383;48.766;9.270;2022-12-07T03:02:07;5.70;93.00
802;DHT22;383;48.766;9.270;2022-12-07T03:04:43;5.70;93.00
802;DHT22;383;48.766;9.270;2022-12-07T03:07:18;5.70;92.80
802;DHT22;383;48.766;9.270;2022-12-07T03:09:51;5.80;92.70
802;DHT22;383;48.766;9.270;2022-12-07T03:12:24;5.80;92.50
802;DHT22;383;48.766;9.270;2022-12-07T03:15:00;5.80;92.60
802;DHT22;383;48.766;9.270;2022-12-07T03:17:31;5.70;92.80
802;DHT22;383;48.766;9.270;2022-12-07T03:20:02;5.80;93.00
802;DHT22;383;48.766;9.270;2022-12-07T03:22:31;5.80;92.90
802;DHT22;383;48.766;9.270;2022-12-07T03:25:04;5.80;92.80
802;DHT22;383;48.766;9.270;2022-12-07T03:27:34;5.70;92.90
802;DHT22;383;48.766;9.270;2022-12-07T03:30:07;5.70;93.10
802;DHT22;383;48.766;9.270;2022-12-07T03:32:38;5.80;93.00
802;DHT22;383;48.766;9.270;2022-12-07T03:35:11;5.70;92.90
802;DHT22;383;48.766;9.270;2022-12-07T03:37:44;5.70;93.10
802;DHT22;383;48.766;9.270;2022-12-07T03:40:16;5.70;93.20
802;DHT22;383;48.766;9.270;2022-12-07T03:42:45;5.70;93.40
802;DHT22;383;48.766;9.270;2022-12-07T03:45:14;5.70;93.20
802;DHT22;383;48.766;9.270;2022-12-07T03:47:46;5.70;92.90
802;DHT22;383;48.766;9.270;2022-12-07T03:50:19;5.70;93.10
802;DHT22;383;48.766;9.270;2022-12-07T03:52:53;5.70;93.30
802;DHT22;383;48.766;9.270;2022-12-07T03:55:26;5.70;93.10
802;DHT22;383;48.766;9.270;2022-12-07T03:57:58;5.60;93.20
802;DHT22;383;48.766;9.270;2022-12-07T04:00:27;5.60;93.20
802;DHT22;383;48.766;9.270;2022-12-07T04:02:55;5.60;93.40
802;DHT22;383;48.766;9.270;2022-12-07T04:05:22;5.50;93.30
802;DHT22;383;48.766;9.270;2022-12-07T04:07:49;5.50;93.50
802;DHT22;383;48.766;9.270;2022-12-07T04:10:16;5.50;93.50
802;DHT22;383;48.766;9.270;2022-12-07T04:12:43;5.50;93.30
802;DHT22;383;48.766;9.270;2022-12-07T04:15:10;5.40;93.50
802;DHT22;383;48.766;9.270;2022-12-07T04:17:38;5.30;93.70
802;DHT22;383;48.766;9.270;2022-12-07T04:20:06;5.20;94.00
802;DHT22;383;48.766;9.270;2022-12-07T04:22:33;5.20;93.90
802;DHT22;383;48.766;9.270;2022-12-07T04:25:00;5.20;93.70
802;DHT22;383;48.766;9.270;2022-12-07T04:27:27;5.10;93.80
802;DHT22;383;48.766;9.270;2022-12-07T04:29:53;5.00;94.20
802;DHT22;383;48.766;9.270;2022-12-07T04:32:21;4.80;94.40
802;DHT22;383;48.766;9.270;2022-12-07T04:34:50;4.70;94.70
802;DHT22;383;48.766;9.270;2022-12-07T04:37:17;4.60;95.10
802;DHT22;383;48.766;9.270;2022-12-07T04:39:44;4.50;95.20
802;DHT22;383;48.766;9.270;2022-12-07T04:42:11;4.30;95.60
802;DHT22;383;48.766;9.270;2022-12-07T04:44:38;4.30;95.40
802;DHT22;383;48.766;9.270;2022-12-07T04:47:05;4.30;95.30
802;DHT22;383;48.766;9.270;2022-12-07T04:49:32;4.20;95.80
802;DHT22;383;48.766;9.270;2022-12-07T04:52:00;4.10;96.20
802;DHT22;383;48.766;9.270;2022-12-07T04:54:27;4.10;96.60
802;DHT22;383;48.766;9.270;2022-12-07T04:56:53;4.10;95.90
802;DHT22;383;48.766;9.270;2022-12-07T04:59:20;4.10;96.10
802;DHT22;383;48.766;9.270;2022-12-07T05:01:47;4.10;96.10
802;DHT22;383;48.766;9.270;2022-12-07T05:04:14;4.10;96.00
802;DHT22;383;48.766;9.270;2022-12-07T05:06:41;4.10;96.20
802;DHT22;383;48.766;9.270;2022-12-07T05:09:09;4.10;95.70
802;DHT22;383;48.766;9.270;2022-12-07T05:11:36;4.20;95.60
802;DHT22;383;48.766;9.270;2022-12-07T05:14:09;4.30;95.30
802;DHT22;383;48.766;9.270;2022-12-07T05:16:37;4.40;94.80
802;DHT22;383;48.766;9.270;2022-12-07T05:19:04;4.40;94.00
802;DHT22;383;48.766;9.270;2022-12-07T05:21:31;4.50;94.10
802;DHT22;383;48.766;9.270;2022-12-07T05:23:58;4.50;94.30
802;DHT22;383;48.766;9.270;2022-12-07T05:26:26;4.40;95.00
802;DHT22;383;48.766;9.270;2022-12-07T05:28:55;4.40;95.50
802;DHT22;383;48.766;9.270;2022-12-07T05:31:23;4.40;95.40
802;DHT22;383;48.766;9.270;2022-12-07T05:33:50;4.40;95.10
802;DHT22;383;48.766;9.270;2022-12-07T05:36:16;4.50;95.20
802;DHT22;383;48.766;9.270;2022-12-07T05:38:43;4.50;95.10
802;DHT22;383;48.766;9.270;2022-12-07T05:41:13;4.60;95.00
802;DHT22;383;48.766;9.270;2022-12-07T05:43:56;4.60;94.50
802;DHT22;383;48.766;9.270;2022-12-07T05:46:23;4.60;94.70
802;DHT22;383;48.766;9.270;2022-12-07T05:48:50;4.50;95.00
802;DHT22;383;48.766;9.270;2022-12-07T05:51:17;4.40;95.20
802;DHT22;383;48.766;9.270;2022-12-07T05:53:44;4.30;95.50
802;DHT22;383;48.766;9.270;2022-12-07T05:56:10;4.20;95.80
802;DHT22;383;48.766;9.270;2022-12-07T05:58:37;4.10;96.20
802;DHT22;383;48.766;9.270;2022-12-07T06:01:23;4.10;96.20
802;DHT22;383;48.766;9.270;2022-12-07T06:03:50;4.00;96.10
802;DHT22;383;48.766;9.270;2022-12-07T06:06:16;3.90;96.30
802;DHT22;383;48.766;9.270;2022-12-07T06:08:43;4.00;96.80
802;DHT22;383;48.766;9.270;2022-12-07T06:11:10;4.00;96.70
802;DHT22;383;48.766;9.270;2022-12-07T06:13:54;4.00;96.50
802;DHT22;383;48.766;9.270;2022-12-07T06:16:22;4.10;95.80
802;DHT22;383;48.766;9.270;2022-12-07T06:18:49;4.10;95.90
802;DHT22;383;48.766;9.270;2022-12-07T06:21:16;4.10;95.70
802;DHT22;383;48.766;9.270;2022-12-07T06:23:42;4.20;95.00
802;DHT22;383;48.766;9.270;2022-12-07T06:26:09;4.20;95.40
802;DHT22;383;48.766;9.270;2022-12-07T06:28:36;4.20;94.90
802;DHT22;383;48.766;9.270;2022-12-07T06:31:03;4.20;95.00
802;DHT22;383;48.766;9.270;2022-12-07T06:33:31;4.20;95.30
802;DHT22;383;48.766;9.270;2022-12-07T06:35:58;4.20;95.30
802;DHT22;383;48.766;9.270;2022-12-07T06:38:25;4.20;95.50
802;DHT22;383;48.766;9.270;2022-12-07T06:40:51;4.20;94.80
802;DHT22;383;48.766;9.270;2022-12-07T06:43:18;4.20;94.90
802;DHT22;383;48.766;9.270;2022-12-07T06:45:45;4.20;95.00
802;DHT22;383;48.766;9.270;2022-12-07T06:48:11;4.30;94.70
802;DHT22;383;48.766;9.270;2022-12-07T06:50:39;4.20;94.80
802;DHT22;383;48.766;9.270;2022-12-07T06:53:07;4.20;95.40
802;DHT22;383;48.766;9.270;2022-12-07T06:55:34;4.20;95.70
802;DHT22;383;48.766;9.270;2022-12-07T06:58:00;4.20;95.40
802;DHT22;383;48.766;9.270;2022-12-07T07:00:28;4.30;95.10
802;DHT22;383;48.766;9.270;2022-12-07T07:02:54;4.30;94.80
802;DHT22;383;48.766;9.270;2022-12-07T07:05:21;4.30;94.70
802;DHT22;383;48.766;9.270;2022-12-07T07:07:50;4.20;94.80
802;DHT22;383;48.766;9.270;2022-12-07T07:10:17;4.20;95.40
802;DHT22;383;48.766;9.270;2022-12-07T07:12:44;4.20;95.60
802;DHT22;383;48.766;9.270;2022-12-07T07:15:10;4.30;94.90
802;DHT22;383;48.766;9.270;2022-12-07T07:17:38;4.30;94.80
802;DHT22;383;48.766;9.270;2022-12-07T07:20:05;4.30;95.10
802;DHT22;383;48.766;9.270;2022-12-07T07:22:32;4.30;95.00
802;DHT22;383;48.766;9.270;2022-12-07T07:25:00;4.40;94.90
802;DHT22;383;48.766;9.270;2022-12-07T07:27:27;4.40;94.50
802;DHT22;383;48.766;9.270;2022-12-07T07:29:54;4.40;94.50
802;DHT22;383;48.766;9.270;2022-12-07T07:32:21;4.50;94.30
802;DHT22;383;48.766;9.270;2022-12-07T07:34:47;4.50;94.30
802;DHT22;383;48.766;9.270;2022-12-07T07:37:14;4.40;94.80
802;DHT22;383;48.766;9.270;2022-12-07T07:39:41;4.40;95.20
802;DHT22;383;48.766;9.270;2022-12-07T07:42:09;4.60;94.80
802;DHT22;383;48.766;9.270;2022-12-07T07:44:36;4.70;94.20
802;DHT22;383;48.766;9.270;2022-12-07T07:47:03;4.70;93.80
802;DHT22;383;48.766;9.270;2022-12-07T07:49:30;4.70;94.00
802;DHT22;383;48.766;9.270;2022-12-07T07:51:56;4.70;94.20
802;DHT22;383;48.766;9.270;2022-12-07T07:54:23;4.80;93.90
802;DHT22;383;48.766;9.270;2022-12-07T07:56:50;4.80;93.70
802;DHT22;383;48.766;9.270;2022-12-07T07:59:18;4.80;93.90
802;DHT22;383;48.766;9.270;2022-12-07T08:01:44;4.90;94.00
802;DHT22;383;48.766;9.270;2022-12-07T08:04:11;4.90;93.80
802;DHT22;383;48.766;9.270;2022-12-07T08:06:38;4.90;93.90
802;DHT22;383;48.766;9.270;2022-12-07T08:09:05;5.00;93.90
802;DHT22;383;48.766;9.270;2022-12-07T08:11:32;5.10;93.60
802;DHT22;383;48.766;9.270;2022-12-07T08:13:58;5.20;93.40
802;DHT22;383;48.766;9.270;2022-12-07T08:16:26;5.30;92.80
802;DHT22;383;48.766;9.270;2022-12-07T08:18:53;5.30;92.40
802;DHT22;383;48.766;9.270;2022-12-07T08:21:20;5.40;92.00
802;DHT22;383;48.766;9.270;2022-12-07T08:23:46;5.50;91.90
802;DHT22;383;48.766;9.270;2022-12-07T08:26:15;5.60;91.40
802;DHT22;383;48.766;9.270;2022-12-07T08:28:42;5.70;91.30
802;DHT22;383;48.766;9.270;2022-12-07T08:31:13;5.80;91.00
802;DHT22;383;48.766;9.270;2022-12-07T08:33:41;5.90;88.60
802;DHT22;383;48.766;9.270;2022-12-07T08:36:10;5.90;89.00
802;DHT22;383;48.766;9.270;2022-12-07T08:38:39;5.90;88.60
802;DHT22;383;48.766;9.270;2022-12-07T08:41:06;6.00;88.40
802;DHT22;383;48.766;9.270;2022-12-07T08:43:34;6.10;88.10
802;DHT22;383;48.766;9.270;2022-12-07T08:46:07;6.10;86.90
802;DHT22;383;48.766;9.270;2022-12-07T08:48:37;6.20;86.90
802;DHT22;383;48.766;9.270;2022-12-07T08:51:07;6.30;86.50
802;DHT22;383;48.766;9.270;2022-12-07T08:53:35;6.30;86.40
802;DHT22;383;48.766;9.270;2022-12-07T08:56:04;6.30;86.70
802;DHT22;383;48.766;9.270;2022-12-07T08:58:32;6.40;85.30
802;DHT22;383;48.766;9.270;2022-12-07T09:00:59;6.40;86.30
802;DHT22;383;48.766;9.270;2022-12-07T09:03:25;6.40;86.10
802;DHT22;383;48.766;9.270;2022-12-07T09:05:52;6.50;86.30
802;DHT22;383;48.766;9.270;2022-12-07T09:08:21;6.50;84.50
802;DHT22;383;48.766;9.270;2022-12-07T09:10:49;6.50;85.10
802;DHT22;383;48.766;9.270;2022-12-07T09:13:16;6.50;85.60
802;DHT22;383;48.766;9.270;2022-12-07T09:15:43;6.70;85.10
802;DHT22;383;48.766;9.270;2022-12-07T09:18:09;6.70;84.90
802;DHT22;383;48.766;9.270;2022-12-07T09:20:36;6.70;85.60
802;DHT22;383;48.766;9.270;2022-12-07T09:23:05;6.80;85.10
802;DHT22;383;48.766;9.270;2022-12-07T09:25:33;6.90;84.80
802;DHT22;383;48.766;9.270;2022-12-07T09:28:00;6.90;84.70
802;DHT22;383;48.766;9.270;2022-12-07T09:30:28;7.00;84.40
802;DHT22;383;48.766;9.270;2022-12-07T09:32:55;7.10;82.80
802;DHT22;383;48.766;9.270;2022-12-07T09:35:25;7.10;82.60
802;DHT22;383;48.766;9.270;2022-12-07T09:37:52;7.10;83.40
802;DHT22;383;48.766;9.270;2022-12-07T09:40:20;7.20;83.60
802;DHT22;383;48.766;9.270;2022-12-07T09:42:52;7.20;83.60
802;DHT22;383;48.766;9.270;2022-12-07T09:45:22;7.30;83.00
802;DHT22;383;48.766;9.270;2022-12-07T09:47:50;7.30;83.00
802;DHT22;383;48.766;9.270;2022-12-07T09:50:20;7.40;82.80
802;DHT22;383;48.766;9.270;2022-12-07T09:52:48;7.50;82.20
802;DHT22;383;48.766;9.270;2022-12-07T09:55:23;7.60;81.20
802;DHT22;383;48.766;9.270;2022-12-07T09:57:53;7.60;80.60
802;DHT22;383;48.766;9.270;2022-12-07T10:00:22;7.70;80.60
802;DHT22;383;48.766;9.270;2022-12-07T10:02:52;7.80;79.50
802;DHT22;383;48.766;9.270;2022-12-07T10:05:24;7.90;78.90
802;DHT22;383;48.766;9.270;2022-12-07T10:07:53;7.90;78.90
802;DHT22;383;48.766;9.270;2022-12-07T10:10:23;8.00;78.10
802;DHT22;383;48.766;9.270;2022-12-07T10:12:58;8.00;77.90
802;DHT22;383;48.766;9.270;2022-12-07T10:15:44;8.10;78.20
802;DHT22;383;48.766;9.270;2022-12-07T10:18:29;8.10;77.90
802;DHT22;383;48.766;9.270;2022-12-07T10:21:11;8.20;76.70
802;DHT22;383;48.766;9.270;2022-12-07T10:23:39;8.30;75.60
802;DHT22;383;48.766;9.270;2022-12-07T10:26:32;8.30;75.60
802;DHT22;383;48.766;9.270;2022-12-07T10:29:02;8.40;76.10
802;DHT22;383;48.766;9.270;2022-12-07T10:31:39;8.50;75.70
802;DHT22;383;48.766;9.270;2022-12-07T10:34:20;8.60;74.60
802;DHT22;383;48.766;9.270;2022-12-07T10:36:47;8.60;74.90
802;DHT22;383;48.766;9.270;2022-12-07T10:39:17;8.50;74.60
802;DHT22;383;48.766;9.270;2022-12-07T10:41:53;8.40;74.90
802;DHT22;383;48.766;9.270;2022-12-07T10:44:24;8.40;75.20
802;DHT22;383;48.766;9.270;2022-12-07T10:47:13;8.50;74.20
802;DHT22;383;48.766;9.270;2022-12-07T10:50:14;8.50;73.70
802;DHT22;383;48.766;9.270;2022-12-07T10:53:08;8.50;74.10
802;DHT22;383;48.766;9.270;2022-12-07T10:55:53;8.50;72.10
802;DHT22;383;48.766;9.270;2022-12-07T10:58:31;8.50;73.00
802;DHT22;383;48.766;9.270;2022-12-07T11:01:08;8.50;71.90
802;DHT22;383;48.766;9.270;2022-12-07T11:03:43;8.50;72.30
802;DHT22;383;48.766;9.270;2022-12-07T11:06:23;8.50;72.30
802;DHT22;383;48.766;9.270;2022-12-07T11:09:04;8.30;72.60
802;DHT22;383;48.766;9.270;2022-12-07T11:11:36;8.30;72.60
802;DHT22;383;48.766;9.270;2022-12-07T11:14:14;8.20;73.70
802;DHT22;383;48.766;9.270;2022-12-07T11:16:55;8.30;74.80
802;DHT22;383;48.766;9.270;2022-12-07T11:19:45;8.20;73.30
802;DHT22;383;48.766;9.270;2022-12-07T11:22:20;8.10;74.60
802;DHT22;383;48.766;9.270;2022-12-07T11:24:56;8.00;75.20
802;DHT22;383;48.766;9.270;2022-12-07T11:27:35;8.10;75.60
802;DHT22;383;48.766;9.270;2022-12-07T11:30:14;8.10;74.40
802;DHT22;383;48.766;9.270;2022-12-07T11:33:15;8.10;74.90
802;DHT22;383;48.766;9.270;2022-12-07T11:35:51;8.20;74.40
802;DHT22;383;48.766;9.270;2022-12-07T11:38:24;8.10;74.90
802;DHT22;383;48.766;9.270;2022-12-07T11:40:58;8.10;75.70
802;DHT22;383;48.766;9.270;2022-12-07T11:43:46;8.10;75.60
802;DHT22;383;48.766;9.270;2022-12-07T11:46:17;8.10;75.80
802;DHT22;383;48.766;9.270;2022-12-07T11:48:49;8.10;75.20
802;DHT22;383;48.766;9.270;2022-12-07T11:51:19;8.10;75.60
802;DHT22;383;48.766;9.270;2022-12-07T11:53:51;8.20;75.00
802;DHT22;383;48.766;9.270;2022-12-07T11:56:21;8.10;75.40
802;DHT22;383;48.766;9.270;2022-12-07T11:58:53;8.10;76.60
802;DHT22;383;48.766;9.270;2022-12-07T12:01:35;8.10;76.60
802;DHT22;383;48.766;9.270;2022-12-07T12:04:23;7.90;77.90
802;DHT22;383;48.766;9.270;2022-12-07T12:06:53;7.90;78.20
802;DHT22;383;48.766;9.270;2022-12-07T12:09:24;7.80;79.30
802;DHT22;383;48.766;9.270;2022-12-07T12:12:11;7.80;79.50
802;DHT22;383;48.766;9.270;2022-12-07T12:14:50;7.70;80.00
802;DHT22;383;48.766;9.270;2022-12-07T12:17:51;7.60;80.80
802;DHT22;383;48.766;9.270;2022-12-07T12:20:25;7.40;81.60
802;DHT22;383;48.766;9.270;2022-12-07T12:22:55;7.40;82.60
802;DHT22;383;48.766;9.270;2022-12-07T12:25:27;7.40;83.00
802;DHT22;383;48.766;9.270;2022-12-07T12:27:56;7.30;83.70
802;DHT22;383;48.766;9.270;2022-12-07T12:30:30;7.30;84.10
802;DHT22;383;48.766;9.270;2022-12-07T12:33:06;7.20;84.50
802;DHT22;383;48.766;9.270;2022-12-07T12:35:36;7.20;84.50
802;DHT22;383;48.766;9.270;2022-12-07T12:38:31;7.20;84.50
802;DHT22;383;48.766;9.270;2022-12-07T12:40:59;7.20;84.40
802;DHT22;383;48.766;9.270;2022-12-07T12:43:49;7.30;83.60
802;DHT22;383;48.766;9.270;2022-12-07T12:46:51;7.10;84.30
802;DHT22;383;48.766;9.270;2022-12-07T12:52:50;7.10;84.40
802;DHT22;383;48.766;9.270;2022-12-07T12:55:43;7.20;84.40
802;DHT22;383;48.766;9.270;2022-12-07T12:58:30;7.30;83.60
802;DHT22;383;48.766;9.270;2022-12-07T13:01:38;7.30;83.50
802;DHT22;383;48.766;9.270;2022-12-07T13:04:34;7.30;83.20
802;DHT22;383;48.766;9.270;2022-12-07T13:07:03;7.30;83.10
802;DHT22;383;48.766;9.270;2022-12-07T13:09:33;7.30;82.70
802;DHT22;383;48.766;9.270;2022-12-07T13:12:04;7.40;83.20
802;DHT22;383;48.766;9.270;2022-12-07T13:14:56;7.30;83.10
802;DHT22;383;48.766;9.270;2022-12-07T13:17:57;7.20;82.60
802;DHT22;383;48.766;9.270;2022-12-07T13:20:49;7.20;82.70
802;DHT22;383;48.766;9.270;2022-12-07T13:23:19;7.20;83.40
802;DHT22;383;48.766;9.270;2022-12-07T13:26:09;7.20;83.40
802;DHT22;383;48.766;9.270;2022-12-07T13:28:40;7.20;83.00
802;DHT22;383;48.766;9.270;2022-12-07T13:34:28;7.30;80.80
802;DHT22;383;48.766;9.270;2022-12-07T13:36:56;7.30;81.80
802;DHT22;383;48.766;9.270;2022-12-07T13:39:25;7.30;82.30
802;DHT22;383;48.766;9.270;2022-12-07T13:41:55;7.30;81.90
802;DHT22;383;48.766;9.270;2022-12-07T13:44:23;7.30;83.00
802;DHT22;383;48.766;9.270;2022-12-07T13:46:57;7.40;82.80
802;DHT22;383;48.766;9.270;2022-12-07T13:49:25;7.40;82.40
802;DHT22;383;48.766;9.270;2022-12-07T13:51:53;7.50;81.60
802;DHT22;383;48.766;9.270;2022-12-07T13:54:21;7.40;81.20
802;DHT22;383;48.766;9.270;2022-12-07T13:56:50;7.40;81.50
802;DHT22;383;48.766;9.270;2022-12-07T13:59:19;7.30;81.10
802;DHT22;383;48.766;9.270;2022-12-07T14:01:49;7.30;81.50
802;DHT22;383;48.766;9.270;2022-12-07T14:04:29;7.30;81.10
802;DHT22;383;48.766;9.270;2022-12-07T14:06:57;7.30;81.60
802;DHT22;383;48.766;9.270;2022-12-07T14:09:25;7.30;81.50
802;DHT22;383;48.766;9.270;2022-12-07T14:11:54;7.30;81.60
802;DHT22;383;48.766;9.270;2022-12-07T14:14:25;7.30;81.90
802;DHT22;383;48.766;9.270;2022-12-07T14:16:59;7.40;82.00
802;DHT22;383;48.766;9.270;2022-12-07T14:19:45;7.40;82.00
802;DHT22;383;48.766;9.270;2022-12-07T14:22:32;7.40;81.80
802;DHT22;383;48.766;9.270;2022-12-07T14:25:21;7.40;81.10
802;DHT22;383;48.766;9.270;2022-12-07T14:27:51;7.40;81.00
802;DHT22;383;48.766;9.270;2022-12-07T14:30:24;7.40;80.60
802;DHT22;383;48.766;9.270;2022-12-07T14:32:54;7.40;80.40
802;DHT22;383;48.766;9.270;2022-12-07T14:35:21;7.40;81.10
802;DHT22;383;48.766;9.270;2022-12-07T14:37:49;7.40;81.50
802;DHT22;383;48.766;9.270;2022-12-07T14:40:18;7.40;81.20
802;DHT22;383;48.766;9.270;2022-12-07T14:42:46;7.40;80.40
802;DHT22;383;48.766;9.270;2022-12-07T14:45:15;7.30;80.70
802;DHT22;383;48.766;9.270;2022-12-07T14:47:44;7.30;81.20
802;DHT22;383;48.766;9.270;2022-12-07T14:50:12;7.30;81.90
802;DHT22;383;48.766;9.270;2022-12-07T14:52:40;7.30;82.20
802;DHT22;383;48.766;9.270;2022-12-07T14:55:17;7.30;81.20
802;DHT22;383;48.766;9.270;2022-12-07T14:57:56;7.30;81.40
802;DHT22;383;48.766;9.270;2022-12-07T15:00:25;7.30;81.60
802;DHT22;383;48.766;9.270;2022-12-07T15:02:53;7.30;81.10
802;DHT22;383;48.766;9.270;2022-12-07T15:05:21;7.20;81.40
802;DHT22;383;48.766;9.270;2022-12-07T15:07:49;7.20;81.90
802;DHT22;383;48.766;9.270;2022-12-07T15:10:18;7.20;81.80
802;DHT22;383;48.766;9.270;2022-12-07T15:12:46;7.20;81.10
802;DHT22;383;48.766;9.270;2022-12-07T15:15:13;7.20;82.20
802;DHT22;383;48.766;9.270;2022-12-07T15:17:40;7.20;82.60
802;DHT22;383;48.766;9.270;2022-12-07T15:20:11;7.10;82.20
802;DHT22;383;48.766;9.270;2022-12-07T15:22:38;7.10;82.30
802;DHT22;383;48.766;9.270;2022-12-07T15:25:06;7.10;82.60
802;DHT22;383;48.766;9.270;2022-12-07T15:27:33;7.10;82.60
802;DHT22;383;48.766;9.270;2022-12-07T15:30:00;7.10;82.40
802;DHT22;383;48.766;9.270;2022-12-07T15:32:27;7.00;82.70
802;DHT22;383;48.766;9.270;2022-12-07T15:34:53;7.00;83.00
802;DHT22;383;48.766;9.270;2022-12-07T15:37:22;7.10;82.30
802;DHT22;383;48.766;9.270;2022-12-07T15:39:48;6.90;83.00
802;DHT22;383;48.766;9.270;2022-12-07T15:42:15;6.90;83.90
802;DHT22;383;48.766;9.270;2022-12-07T15:44:42;6.90;83.40
802;DHT22;383;48.766;9.270;2022-12-07T15:47:26;6.80;83.40
802;DHT22;383;48.766;9.270;2022-12-07T15:49:55;6.80;83.60
802;DHT22;383;48.766;9.270;2022-12-07T15:52:23;6.70;83.60
802;DHT22;383;48.766;9.270;2022-12-07T15:54:49;6.60;83.90
802;DHT22;383;48.766;9.270;2022-12-07T15:57:16;6.50;84.90
802;DHT22;383;48.766;9.270;2022-12-07T15:59:43;6.50;85.30
802;DHT22;383;48.766;9.270;2022-12-07T16:02:10;6.50;85.10
802;DHT22;383;48.766;9.270;2022-12-07T16:04:37;6.50;85.20
802;DHT22;383;48.766;9.270;2022-12-07T16:07:03;6.50;85.60
802;DHT22;383;48.766;9.270;2022-12-07T16:09:35;6.60;84.90
802;DHT22;383;48.766;9.270;2022-12-07T16:12:02;6.60;84.90
802;DHT22;383;48.766;9.270;2022-12-07T16:14:29;6.60;85.30
802;DHT22;383;48.766;9.270;2022-12-07T16:16:57;6.50;86.00
802;DHT22;383;48.766;9.270;2022-12-07T16:19:24;6.60;85.60
802;DHT22;383;48.766;9.270;2022-12-07T16:21:51;6.50;84.40
802;DHT22;383;48.766;9.270;2022-12-07T16:24:18;6.50;84.10
802;DHT22;383;48.766;9.270;2022-12-07T16:26:46;6.40;85.30
802;DHT22;383;48.766;9.270;2022-12-07T16:29:16;6.30;86.30
802;DHT22;383;48.766;9.270;2022-12-07T16:31:44;6.30;86.00
802;DHT22;383;48.766;9.270;2022-12-07T16:34:10;6.30;84.50
802;DHT22;383;48.766;9.270;2022-12-07T16:36:37;6.30;84.50
802;DHT22;383;48.766;9.270;2022-12-07T16:39:05;6.30;84.10
802;DHT22;383;48.766;9.270;2022-12-07T16:41:32;6.40;83.60
802;DHT22;383;48.766;9.270;2022-12-07T16:44:02;6.30;83.50
802;DHT22;383;48.766;9.270;2022-12-07T16:46:31;6.30;84.10
802;DHT22;383;48.766;9.270;2022-12-07T16:48:59;6.30;84.10
802;DHT22;383;48.766;9.270;2022-12-07T16:51:25;6.30;84.30
802;DHT22;383;48.766;9.270;2022-12-07T16:53:53;6.20;84.80
802;DHT22;383;48.766;9.270;2022-12-07T16:56:22;6.30;84.70
802;DHT22;383;48.766;9.270;2022-12-07T16:58:50;6.20;84.10
802;DHT22;383;48.766;9.270;2022-12-07T17:01:19;6.20;84.30
802;DHT22;383;48.766;9.270;2022-12-07T17:03:47;6.20;84.80
802;DHT22;383;48.766;9.270;2022-12-07T17:06:15;6.10;85.30
802;DHT22;383;48.766;9.270;2022-12-07T17:08:42;6.00;85.30
802;DHT22;383;48.766;9.270;2022-12-07T17:11:11;5.90;85.90
802;DHT22;383;48.766;9.270;2022-12-07T17:13:38;5.80;85.90
802;DHT22;383;48.766;9.270;2022-12-07T17:16:24;5.80;86.40
802;DHT22;383;48.766;9.270;2022-12-07T17:18:50;5.60;86.90
802;DHT22;383;48.766;9.270;2022-12-07T17:21:17;5.50;87.70
802;DHT22;383;48.766;9.270;2022-12-07T17:23:45;5.40;88.20
802;DHT22;383;48.766;9.270;2022-12-07T17:26:15;5.40;88.50
802;DHT22;383;48.766;9.270;2022-12-07T17:28:43;5.30;88.60